createdAt,value
2019-03-12T00:01:16.869Z,2.63
2019-03-12T00:03:46.576Z,2.97
2019-03-12T00:06:16.248Z,2.97
2019-03-12T00:08:45.893Z,2.80
2019-03-12T00:11:15.529Z,3.00
2019-03-12T00:13:45.455Z,3.77
2019-03-12T00:16:15.567Z,2.90
2019-03-12T00:18:45.263Z,3.00
2019-03-12T00:21:15.246Z,2.93
2019-03-12T00:23:45.249Z,2.63
2019-03-12T00:26:18.299Z,2.67
2019-03-12T00:28:48.100Z,2.57
2019-03-12T00:31:17.926Z,3.33
2019-03-12T00:33:47.635Z,2.63
2019-03-12T00:36:17.487Z,3.07
2019-03-12T00:38:47.490Z,3.90
2019-03-12T00:41:19.973Z,3.70
2019-03-12T00:43:48.924Z,3.23
2019-03-12T00:46:18.868Z,4.13
2019-03-12T00:48:48.490Z,4.20
2019-03-12T00:51:18.157Z,4.27
2019-03-12T00:53:47.817Z,4.90
2019-03-12T00:56:17.442Z,5.50
2019-03-12T00:58:47.155Z,4.60
2019-03-12T01:01:16.866Z,4.57
2019-03-12T01:03:46.523Z,4.00
2019-03-12T01:06:16.293Z,5.17
2019-03-12T01:08:46.069Z,4.60
2019-03-12T01:11:16.011Z,4.90
2019-03-12T01:13:45.789Z,4.20
2019-03-12T01:16:15.620Z,5.43
2019-03-12T01:18:45.396Z,4.90
2019-03-12T01:21:15.291Z,4.37
2019-03-12T01:23:45.098Z,4.20
2019-03-12T01:26:15.115Z,4.50
2019-03-12T01:28:45.372Z,5.00
2019-03-12T01:31:15.389Z,4.20
2019-03-12T01:33:45.025Z,5.43
2019-03-12T01:36:14.777Z,5.00
2019-03-12T01:38:44.414Z,5.43
2019-03-12T01:41:14.523Z,6.10
2019-03-12T01:43:44.263Z,5.40
2019-03-12T01:46:13.977Z,5.67
2019-03-12T01:48:43.768Z,6.17
2019-03-12T01:55:00.603Z,6.03
2019-03-12T01:57:30.263Z,6.63
2019-03-12T02:00:00.056Z,5.63
2019-03-12T02:02:29.888Z,5.80
2019-03-12T02:04:59.833Z,5.20
2019-03-12T02:07:29.502Z,4.80
2019-03-12T02:09:59.190Z,5.33
2019-03-12T02:12:28.833Z,5.63
2019-03-12T02:14:58.614Z,5.70
2019-03-12T02:17:28.446Z,5.63
2019-03-12T02:19:58.157Z,5.80
2019-03-12T02:22:28.047Z,4.53
2019-03-12T02:24:58.034Z,6.10
2019-03-12T02:27:28.307Z,6.10
2019-03-12T02:29:58.359Z,6.17
2019-03-12T02:32:28.119Z,6.37
2019-03-12T02:34:57.805Z,5.90
2019-03-12T02:37:27.547Z,4.80
2019-03-12T02:39:57.597Z,4.50
2019-03-12T02:42:27.970Z,4.33
2019-03-12T02:44:57.745Z,4.33
2019-03-12T02:47:28.648Z,5.20
2019-03-12T02:49:58.638Z,4.50
2019-03-12T02:52:28.376Z,5.53
2019-03-12T02:54:58.188Z,4.97
2019-03-12T02:57:28.279Z,5.50
2019-03-12T02:59:58.227Z,5.13
2019-03-12T03:02:28.016Z,5.47
2019-03-12T03:04:57.947Z,5.30
2019-03-12T03:07:45.532Z,4.83
2019-03-12T03:10:15.605Z,4.07
2019-03-12T03:12:45.893Z,4.70
2019-03-12T03:15:23.414Z,5.23
2019-03-12T03:17:53.256Z,4.80
2019-03-12T03:20:23.066Z,5.27
2019-03-12T03:22:53.038Z,5.40
2019-03-12T03:25:22.766Z,5.43
2019-03-12T03:27:52.667Z,5.70
2019-03-12T03:30:23.257Z,5.60
2019-03-12T03:32:53.421Z,6.17
2019-03-12T03:35:23.845Z,6.27
2019-03-12T03:37:53.710Z,5.90
2019-03-12T03:40:23.438Z,6.40
2019-03-12T03:42:53.379Z,6.77
2019-03-12T03:45:23.844Z,7.83
2019-03-12T03:47:53.811Z,7.50
2019-03-12T03:50:23.676Z,7.40
2019-03-12T03:52:54.756Z,7.80
2019-03-12T03:55:24.706Z,7.20
2019-03-12T03:57:54.640Z,6.10
2019-03-12T04:00:24.564Z,7.90
2019-03-12T04:02:54.458Z,6.00
2019-03-12T04:05:24.241Z,6.73
2019-03-12T04:07:54.107Z,6.60
2019-03-12T04:10:24.098Z,6.63
2019-03-12T04:12:54.019Z,7.97
2019-03-12T04:15:23.798Z,6.90
2019-03-12T04:17:53.711Z,7.33
2019-03-12T04:20:23.377Z,7.93
2019-03-12T04:22:53.389Z,9.03
2019-03-12T04:25:23.550Z,8.87
2019-03-12T04:27:53.272Z,7.17
2019-03-12T04:30:23.287Z,7.70
2019-03-12T04:32:53.068Z,9.33
2019-03-12T04:35:23.244Z,8.63
2019-03-12T04:37:52.957Z,8.10
2019-03-12T04:40:22.794Z,8.10
2019-03-12T04:42:52.649Z,9.60
2019-03-12T04:45:22.704Z,8.17
2019-03-12T04:47:52.493Z,8.73
2019-03-12T04:50:22.277Z,7.90
2019-03-12T04:52:52.257Z,7.10
2019-03-12T04:55:22.025Z,7.40
2019-03-12T04:57:52.912Z,7.20
2019-03-12T05:00:22.612Z,7.20
2019-03-12T05:02:52.755Z,6.83
2019-03-12T05:05:22.639Z,7.10
2019-03-12T05:07:52.285Z,6.47
2019-03-12T05:10:22.226Z,5.87
2019-03-12T05:12:52.328Z,5.83
2019-03-12T05:15:22.084Z,6.07
2019-03-12T05:17:52.072Z,7.60
2019-03-12T05:20:22.233Z,6.57
2019-03-12T05:22:53.189Z,7.57
2019-03-12T05:25:23.189Z,8.50
2019-03-12T05:27:53.470Z,8.37
2019-03-12T05:30:23.294Z,8.03
2019-03-12T05:32:55.555Z,9.30
2019-03-12T05:35:26.119Z,8.13
2019-03-12T05:37:55.937Z,8.73
2019-03-12T05:40:28.034Z,8.87
2019-03-12T05:42:57.031Z,9.00
2019-03-12T05:45:27.019Z,9.47
2019-03-12T05:47:56.789Z,9.50
2019-03-12T05:50:26.497Z,9.87
2019-03-12T05:53:11.437Z,10.77
2019-03-12T05:55:42.352Z,8.80
2019-03-12T05:58:12.124Z,10.33
2019-03-12T06:00:54.759Z,12.03
2019-03-12T06:03:22.653Z,11.60
2019-03-12T06:05:52.285Z,10.83
2019-03-12T06:08:21.978Z,9.63
2019-03-12T06:10:51.604Z,9.60
2019-03-12T06:13:21.366Z,11.50
2019-03-12T06:15:53.221Z,10.27
2019-03-12T06:18:22.474Z,10.17
2019-03-12T06:20:52.509Z,11.17
2019-03-12T06:23:22.351Z,9.60
2019-03-12T06:25:52.071Z,8.90
2019-03-12T06:28:22.234Z,10.63
2019-03-12T06:31:09.313Z,8.63
2019-03-12T06:33:51.664Z,8.57
2019-03-12T06:36:46.660Z,9.50
2019-03-12T06:39:34.118Z,10.43
2019-03-12T06:42:18.037Z,11.60
2019-03-12T06:45:05.223Z,11.03
2019-03-12T06:47:56.821Z,9.67
2019-03-12T06:50:41.447Z,7.20
2019-03-12T06:53:19.331Z,6.97
2019-03-12T06:56:17.046Z,6.53
2019-03-12T06:58:55.213Z,5.60
2019-03-12T07:01:37.937Z,5.60
2019-03-12T07:04:26.881Z,4.30
2019-03-12T07:07:11.589Z,4.73
2019-03-12T07:10:15.340Z,5.20
2019-03-12T07:12:54.723Z,4.30
2019-03-12T07:15:32.995Z,3.27
2019-03-12T07:18:24.927Z,4.10
2019-03-12T07:21:23.069Z,3.80
2019-03-12T07:24:13.183Z,3.50
2019-03-12T07:27:00.959Z,3.30
2019-03-12T07:29:42.827Z,3.93
2019-03-12T07:32:30.308Z,3.70
2019-03-12T07:35:34.337Z,3.20
2019-03-12T07:38:27.327Z,3.80
2019-03-12T07:41:32.194Z,3.07
2019-03-12T07:44:14.331Z,3.40
2019-03-12T07:46:52.477Z,3.27
2019-03-12T07:49:41.903Z,3.30
2019-03-12T07:52:21.896Z,4.30
2019-03-12T07:55:10.697Z,4.30
2019-03-12T07:57:48.397Z,4.70
2019-03-12T08:00:27.298Z,3.23
2019-03-12T08:03:15.084Z,4.07
2019-03-12T08:06:15.900Z,3.40
2019-03-12T08:09:00.529Z,3.97
2019-03-12T08:11:34.977Z,4.27
2019-03-12T08:14:27.162Z,3.93
2019-03-12T08:17:04.087Z,3.63
2019-03-12T08:19:47.612Z,4.60
2019-03-12T08:22:35.154Z,4.00
2019-03-12T08:25:24.017Z,3.40
2019-03-12T08:28:11.714Z,4.07
2019-03-12T08:31:00.903Z,3.50
2019-03-12T08:33:49.603Z,3.87
2019-03-12T08:36:29.867Z,4.23
2019-03-12T08:39:05.254Z,3.40
2019-03-12T08:41:53.221Z,3.27
2019-03-12T08:44:44.566Z,3.40
2019-03-12T08:47:31.845Z,3.93
2019-03-12T08:50:20.585Z,4.13
2019-03-12T08:53:12.653Z,3.20
2019-03-12T08:55:55.492Z,2.87
2019-03-12T08:58:59.780Z,3.43
2019-03-12T09:01:39.701Z,2.83
2019-03-12T09:04:27.157Z,3.37
2019-03-12T09:07:15.824Z,2.90
2019-03-12T09:09:53.604Z,3.30
2019-03-12T09:12:48.771Z,3.33
2019-03-12T09:15:40.996Z,2.47
2019-03-12T09:18:33.077Z,2.90
2019-03-12T09:21:40.366Z,3.20
2019-03-12T09:24:19.365Z,3.30
2019-03-12T09:27:14.433Z,2.90
2019-03-12T09:30:06.470Z,2.90
2019-03-12T09:32:47.481Z,3.70
2019-03-12T09:35:37.845Z,3.20
2019-03-12T09:38:26.693Z,3.10
2019-03-12T09:41:10.838Z,3.50
2019-03-12T09:43:59.978Z,3.93
2019-03-12T09:46:36.203Z,3.50
2019-03-12T09:49:14.148Z,3.93
2019-03-12T09:52:09.034Z,4.07
2019-03-12T09:54:57.906Z,4.33
2019-03-12T09:58:05.561Z,4.33
2019-03-12T10:00:46.022Z,4.50
2019-03-12T10:03:30.993Z,4.20
2019-03-12T10:06:29.090Z,3.83
2019-03-12T10:09:16.439Z,3.87
2019-03-12T10:11:56.790Z,4.10
2019-03-12T10:14:34.327Z,4.20
2019-03-12T10:17:35.906Z,4.43
2019-03-12T10:20:24.304Z,4.60
2019-03-12T10:23:03.332Z,4.33
2019-03-12T10:25:53.710Z,5.40
2019-03-12T10:28:41.295Z,6.30
2019-03-12T10:31:34.478Z,5.30
2019-03-12T10:34:37.930Z,4.53
2019-03-12T10:37:21.066Z,5.00
2019-03-12T10:40:11.881Z,5.27
2019-03-12T10:42:51.774Z,5.63
2019-03-12T10:45:25.327Z,6.10
2019-03-12T10:47:55.943Z,5.80
2019-03-12T10:50:25.743Z,5.57
2019-03-12T10:52:55.657Z,6.50
2019-03-12T10:55:25.404Z,4.93
2019-03-12T10:57:55.190Z,6.10
2019-03-12T11:00:25.025Z,4.70
2019-03-12T11:02:54.667Z,5.23
2019-03-12T11:05:24.651Z,5.73
2019-03-12T11:07:54.286Z,5.70
2019-03-12T11:10:24.141Z,5.10
2019-03-12T11:12:54.189Z,5.20
2019-03-12T11:15:23.995Z,6.07
2019-03-12T11:17:53.806Z,5.47
2019-03-12T11:20:23.509Z,5.40
2019-03-12T11:22:53.443Z,6.00
2019-03-12T11:25:27.880Z,5.60
2019-03-12T11:27:56.049Z,6.30
2019-03-12T11:30:25.747Z,5.47
2019-03-12T11:32:56.289Z,6.23
2019-03-12T11:35:26.041Z,6.07
2019-03-12T11:37:56.024Z,6.57
2019-03-12T11:40:31.614Z,6.60
2019-03-12T11:42:57.541Z,7.43
2019-03-12T11:45:36.285Z,6.10
2019-03-12T11:47:59.210Z,6.03
2019-03-12T11:50:28.981Z,6.40
2019-03-12T11:53:00.001Z,6.60
2019-03-12T11:55:30.731Z,6.43
2019-03-12T11:58:00.601Z,6.17
2019-03-12T12:00:33.190Z,6.07
2019-03-12T12:03:03.300Z,5.87
2019-03-12T12:05:33.013Z,6.00
2019-03-12T12:08:02.907Z,5.20
2019-03-12T12:10:33.005Z,6.00
2019-03-12T12:13:03.414Z,6.80
2019-03-12T12:15:33.190Z,5.00
2019-03-12T12:18:03.034Z,6.10
2019-03-12T12:20:32.907Z,5.20
2019-03-12T12:23:02.544Z,5.77
2019-03-12T12:25:32.436Z,5.80
2019-03-12T12:28:02.653Z,4.70
2019-03-12T12:30:32.888Z,4.90
2019-03-12T12:33:03.973Z,4.90
2019-03-12T12:35:34.027Z,4.57
2019-03-12T12:38:03.722Z,5.20
2019-03-12T12:40:34.549Z,4.30
2019-03-12T12:43:05.475Z,4.80
2019-03-12T12:45:35.299Z,3.53
2019-03-12T12:48:05.294Z,4.43
2019-03-12T12:50:35.403Z,3.70
2019-03-12T12:53:05.348Z,3.90
2019-03-12T12:55:36.299Z,3.50
2019-03-12T12:58:07.119Z,4.07
2019-03-12T13:00:38.367Z,4.00
2019-03-12T13:03:08.589Z,3.23
2019-03-12T13:05:38.557Z,3.60
2019-03-12T13:08:08.512Z,3.90
2019-03-12T13:10:38.569Z,3.60
2019-03-12T13:13:09.279Z,3.33
2019-03-12T13:15:39.205Z,3.63
2019-03-12T13:18:09.686Z,2.70
2019-03-12T13:20:39.599Z,3.57
2019-03-12T13:23:09.873Z,3.17
2019-03-12T13:25:39.894Z,2.90
2019-03-12T13:28:09.692Z,3.17
2019-03-12T13:30:39.840Z,3.53
2019-03-12T13:33:11.022Z,3.03
2019-03-12T13:35:40.764Z,2.87
2019-03-12T13:38:10.735Z,2.90
2019-03-12T13:40:40.641Z,2.70
2019-03-12T13:43:10.908Z,2.60
2019-03-12T13:45:40.926Z,3.27
2019-03-12T13:48:11.254Z,2.47
2019-03-12T13:50:41.369Z,2.17
2019-03-12T13:53:11.295Z,2.47
2019-03-12T13:55:41.266Z,2.20
2019-03-12T13:58:11.093Z,2.43
2019-03-12T14:00:40.852Z,2.47
2019-03-12T14:03:10.747Z,2.93
2019-03-12T14:05:40.589Z,2.30
2019-03-12T14:08:10.505Z,2.00
2019-03-12T14:10:40.271Z,1.90
2019-03-12T14:13:10.160Z,2.50
2019-03-12T14:15:39.949Z,2.00
2019-03-12T14:18:09.769Z,2.10
2019-03-12T14:20:44.364Z,2.50
2019-03-12T14:23:22.656Z,2.70
2019-03-12T14:25:52.474Z,2.37
2019-03-12T14:28:22.250Z,2.17
2019-03-12T14:30:52.000Z,2.10
2019-03-12T14:33:21.785Z,2.60
2019-03-12T14:35:52.378Z,2.33
2019-03-12T14:38:22.407Z,2.90
2019-03-12T14:40:52.230Z,2.80
2019-03-12T14:43:22.298Z,2.30
2019-03-12T14:45:52.533Z,3.00
2019-03-12T14:48:44.916Z,2.47
2019-03-12T14:51:53.443Z,4.40
2019-03-12T14:54:23.517Z,2.53
2019-03-12T14:56:53.960Z,2.73
2019-03-12T14:59:23.750Z,2.40
2019-03-12T15:01:53.472Z,2.97
2019-03-12T15:04:23.463Z,2.43
2019-03-12T15:06:53.624Z,2.10
2019-03-12T15:09:23.553Z,2.70
2019-03-12T15:11:53.357Z,2.73
2019-03-12T15:14:23.489Z,2.50
2019-03-12T15:16:53.301Z,2.27
2019-03-12T15:19:23.062Z,1.70
2019-03-12T15:21:52.845Z,2.40
2019-03-12T15:24:22.717Z,1.80
2019-03-12T15:26:52.498Z,1.83
2019-03-12T15:29:22.187Z,2.30
2019-03-12T15:32:03.396Z,2.97
2019-03-12T15:34:23.624Z,2.33
2019-03-12T15:36:53.330Z,2.70
2019-03-12T15:39:23.396Z,2.30
2019-03-12T15:41:53.258Z,2.30
2019-03-12T15:44:23.144Z,1.80
2019-03-12T15:46:53.069Z,2.10
2019-03-12T15:49:22.839Z,1.63
2019-03-12T15:51:52.851Z,2.00
2019-03-12T15:54:22.639Z,1.67
2019-03-12T15:56:52.375Z,1.60
2019-03-12T15:59:22.077Z,2.77
2019-03-12T16:01:52.565Z,2.27
2019-03-12T16:04:22.625Z,2.10
2019-03-12T16:07:01.142Z,2.20
2019-03-12T16:09:23.784Z,2.50
2019-03-12T16:11:53.677Z,1.80
2019-03-12T16:14:23.987Z,2.17
2019-03-12T16:16:53.830Z,1.63
2019-03-12T16:19:23.843Z,2.50
2019-03-12T16:21:53.723Z,1.83
2019-03-12T16:24:23.385Z,2.07
2019-03-12T16:26:53.113Z,1.73
2019-03-12T16:29:22.782Z,1.93
2019-03-12T16:31:52.854Z,2.00
2019-03-12T16:34:42.214Z,2.10
2019-03-12T16:37:12.411Z,2.10
2019-03-12T16:39:42.718Z,1.70
2019-03-12T16:42:12.767Z,2.37
2019-03-12T16:44:43.539Z,2.00
2019-03-12T16:47:13.270Z,2.27
2019-03-12T16:49:43.040Z,1.97
2019-03-12T16:52:12.630Z,1.40
2019-03-12T16:54:42.526Z,2.47
2019-03-12T16:57:12.401Z,3.70
2019-03-12T16:59:42.119Z,2.93
2019-03-12T17:02:11.977Z,2.43
2019-03-12T17:04:41.734Z,1.90
2019-03-12T17:07:11.673Z,2.23
2019-03-12T17:09:44.010Z,1.87
2019-03-12T17:12:13.790Z,1.60
2019-03-12T17:14:43.438Z,2.43
2019-03-12T17:17:13.426Z,2.10
2019-03-12T17:19:43.341Z,2.50
2019-03-12T17:22:12.999Z,2.00
2019-03-12T17:24:42.728Z,2.13
2019-03-12T17:27:12.507Z,2.13
2019-03-12T17:29:43.239Z,2.03
2019-03-12T17:32:13.763Z,1.87
2019-03-12T17:34:43.673Z,2.17
2019-03-12T17:37:13.278Z,2.20
2019-03-12T17:39:42.981Z,2.10
2019-03-12T17:42:12.911Z,1.93
2019-03-12T17:44:42.785Z,1.80
2019-03-12T17:47:12.464Z,1.83
2019-03-12T17:49:42.240Z,2.17
2019-03-12T17:52:11.878Z,1.67
2019-03-12T17:54:41.524Z,1.90
2019-03-12T17:57:11.154Z,2.07
2019-03-12T17:59:40.785Z,1.73
2019-03-12T18:02:10.598Z,1.70
2019-03-12T18:04:40.619Z,1.93
2019-03-12T18:07:10.245Z,2.40
2019-03-12T18:09:40.026Z,2.30
2019-03-12T18:12:09.679Z,2.10
2019-03-12T18:14:39.335Z,2.03
2019-03-12T18:17:09.933Z,2.13
2019-03-12T18:19:39.658Z,1.83
2019-03-12T18:22:09.365Z,1.77
2019-03-12T18:24:40.249Z,1.80
2019-03-12T18:27:10.220Z,1.93
2019-03-12T18:29:40.264Z,1.87
2019-03-12T18:32:09.856Z,1.40
2019-03-12T18:34:40.881Z,1.70
2019-03-12T18:37:11.553Z,2.57
2019-03-12T18:39:41.240Z,2.30
2019-03-12T18:42:10.897Z,1.97
2019-03-12T18:44:40.962Z,1.70
2019-03-12T18:47:10.658Z,2.43
2019-03-12T18:49:40.663Z,2.23
2019-03-12T18:52:10.305Z,2.17
2019-03-12T18:54:39.898Z,2.17
2019-03-12T18:57:10.102Z,1.77
2019-03-12T18:59:39.709Z,1.77
2019-03-12T19:02:09.261Z,2.30
2019-03-12T19:04:39.177Z,1.80
2019-03-12T19:07:09.038Z,2.20
2019-03-12T19:09:38.673Z,1.63
2019-03-12T19:12:08.301Z,1.80
2019-03-12T19:14:38.113Z,1.90
2019-03-12T19:17:08.042Z,1.90
2019-03-12T19:19:37.829Z,2.20
2019-03-12T19:22:07.408Z,2.60
2019-03-12T19:24:38.462Z,2.00
2019-03-12T19:27:08.116Z,2.20
2019-03-12T19:29:37.906Z,1.70
2019-03-12T19:32:17.641Z,1.43
2019-03-12T19:34:47.340Z,1.90
2019-03-12T19:37:17.756Z,2.00
2019-03-12T19:39:47.813Z,2.03
2019-03-12T19:42:17.764Z,1.80
2019-03-12T19:44:47.489Z,1.90
2019-03-12T19:47:17.480Z,1.80
2019-03-12T19:49:47.304Z,1.90
2019-03-12T19:52:16.989Z,1.80
2019-03-12T19:54:47.044Z,1.93
2019-03-12T19:57:17.122Z,1.70
2019-03-12T19:59:46.832Z,2.23
2019-03-12T20:02:17.863Z,2.30
2019-03-12T20:04:47.745Z,1.73
2019-03-12T20:07:21.226Z,1.80
2019-03-12T20:10:49.432Z,1.40
2019-03-12T20:14:00.207Z,1.77
2019-03-12T20:17:14.723Z,1.47
2019-03-12T20:20:49.542Z,2.27
2019-03-12T20:23:54.958Z,1.53
2019-03-12T20:27:05.932Z,1.70
2019-03-12T20:30:28.274Z,1.50
2019-03-12T20:33:23.596Z,1.53
2019-03-12T20:36:30.529Z,1.60
2019-03-12T20:39:51.676Z,2.00
2019-03-12T20:43:04.127Z,1.50
2019-03-12T20:46:09.537Z,1.73
2019-03-12T20:49:11.822Z,1.80
2019-03-12T20:52:30.903Z,2.40
2019-03-12T20:55:36.087Z,1.80
2019-03-12T20:58:42.846Z,1.50
2019-03-12T21:01:42.250Z,1.43
2019-03-12T21:04:47.173Z,1.60
2019-03-12T21:07:49.296Z,1.60
2019-03-12T21:10:54.850Z,1.33
2019-03-12T21:14:19.341Z,1.20
2019-03-12T21:17:14.231Z,1.80
2019-03-12T21:20:34.259Z,1.40
2019-03-12T21:23:40.554Z,1.57
2019-03-12T21:26:46.840Z,1.00
2019-03-12T21:29:43.842Z,1.50
2019-03-12T21:32:14.138Z,1.77
2019-03-12T21:34:43.886Z,1.50
2019-03-12T21:37:13.880Z,1.77
2019-03-12T21:39:54.442Z,1.40
2019-03-12T21:42:16.616Z,1.50
2019-03-12T21:44:46.409Z,1.73
2019-03-12T21:47:16.118Z,1.50
2019-03-12T21:49:45.672Z,1.60
2019-03-12T21:52:15.344Z,1.67
2019-03-12T21:54:47.355Z,1.40
2019-03-12T21:57:17.056Z,1.30
2019-03-12T21:59:47.709Z,1.50
2019-03-12T22:02:17.910Z,1.40
2019-03-12T22:04:48.522Z,1.97
2019-03-12T22:07:18.399Z,1.13
2019-03-12T22:09:48.361Z,1.27
2019-03-12T22:12:18.076Z,1.53
2019-03-12T22:14:48.714Z,1.50
2019-03-12T22:17:18.326Z,1.30
2019-03-12T22:19:48.225Z,1.10
2019-03-12T22:22:23.652Z,1.20
2019-03-12T22:24:58.378Z,1.57
2019-03-12T22:27:28.321Z,1.23
2019-03-12T22:29:57.900Z,1.30
2019-03-12T22:32:27.886Z,2.03
2019-03-12T22:34:57.542Z,1.60
2019-03-12T22:37:27.196Z,1.30
2019-03-12T22:39:56.881Z,1.50
2019-03-12T22:42:27.593Z,1.47
2019-03-12T22:44:57.250Z,1.03
2019-03-12T22:47:26.969Z,1.40
2019-03-12T22:49:56.828Z,1.40
2019-03-12T22:52:26.560Z,1.30
2019-03-12T22:54:56.448Z,1.60
2019-03-12T22:57:26.150Z,1.40
2019-03-12T22:59:55.849Z,1.50
2019-03-12T23:02:25.657Z,1.33
2019-03-12T23:04:55.412Z,1.40
2019-03-12T23:07:25.223Z,1.27
2019-03-12T23:09:55.117Z,1.30
2019-03-12T23:12:25.008Z,1.73
2019-03-12T23:14:54.738Z,1.57
2019-03-12T23:17:24.644Z,1.60
2019-03-12T23:19:54.418Z,1.47
2019-03-12T23:22:24.152Z,1.80
2019-03-12T23:24:54.177Z,1.50
2019-03-12T23:27:24.193Z,1.30
2019-03-12T23:29:53.999Z,1.33
2019-03-12T23:32:24.396Z,1.30
2019-03-12T23:34:54.108Z,1.50
2019-03-12T23:37:23.813Z,1.20
2019-03-12T23:39:53.536Z,1.60
2019-03-12T23:42:23.204Z,2.07
2019-03-12T23:44:53.168Z,1.70
2019-03-12T23:47:23.029Z,1.80
2019-03-12T23:49:52.760Z,1.90
2019-03-12T23:52:22.699Z,2.07
2019-03-12T23:54:52.406Z,1.80
2019-03-12T23:57:22.283Z,2.70
2019-03-12T23:59:52.342Z,2.20
